KANQ/ANQ METAR and TAF weather

Enter ICAO airport designator
Station Type Date Time Source
KANQ METAR 2018/07/21 22:55 UTC NOAA

KANQ 212255Z AUTO 11009KT 10SM FEW009 SCT036 BKN041 21/19 A2974 RMK AO2 TSNO


Station Type Date Time Source
KANQ Decoded METAR 2018/07/21 22:55 UTC NOAA

Station name not available
Jul 21, 2018 - 06:55 PM EDT / 2018.07.21 2255 UTC
Wind: from the ESE (110 degrees) at 10 MPH (9 KT):0
Visibility: 10 mile(s):0
Sky conditions: mostly cloudy
Temperature: 69 F (21 C)
Dew Point: 66 F (19 C)
Relative Humidity: 88%
Pressure (altimeter): 29.74 in. Hg (1007 hPa)
ob: KANQ 212255Z AUTO 11009KT 10SM FEW009 SCT036 BKN041 21/19 A2974 RMK AO2 TSNO
cycle: 23

Station Type Date Time Source
KANQ TAF UTC NOAA

Error!


Example: see airport list